sensor_id;sensor_type;location;lat;lon;timestamp;temperature;humidity
49615;DHT22;35517;45.272;9.984;2024-03-08T00:00:34;10.80;99.90
49615;DHT22;35517;45.272;9.984;2024-03-08T00:03:01;10.70;99.90
49615;DHT22;35517;45.272;9.984;2024-03-08T00:05:28;10.80;99.90
49615;DHT22;35517;45.272;9.984;2024-03-08T00:07:54;10.70;99.90
49615;DHT22;35517;45.272;9.984;2024-03-08T00:10:20;10.80;99.90
49615;DHT22;35517;45.272;9.984;2024-03-08T00:12:47;10.80;99.90
49615;DHT22;35517;45.272;9.984;2024-03-08T00:15:14;10.80;99.90
49615;DHT22;35517;45.272;9.984;2024-03-08T00:17:41;10.80;99.90
49615;DHT22;35517;45.272;9.984;2024-03-08T00:20:08;10.80;99.90
49615;DHT22;35517;45.272;9.984;2024-03-08T00:22:35;10.90;99.90
49615;DHT22;35517;45.272;9.984;2024-03-08T00:25:02;10.90;99.90
49615;DHT22;35517;45.272;9.984;2024-03-08T00:27:29;10.90;99.90
49615;DHT22;35517;45.272;9.984;2024-03-08T00:29:57;10.90;99.90
49615;DHT22;35517;45.272;9.984;2024-03-08T00:32:23;10.90;99.90
49615;DHT22;35517;45.272;9.984;2024-03-08T00:34:54;11.00;99.90
49615;DHT22;35517;45.272;9.984;2024-03-08T00:37:23;11.00;99.90
49615;DHT22;35517;45.272;9.984;2024-03-08T00:39:50;11.00;99.90
49615;DHT22;35517;45.272;9.984;2024-03-08T00:42:17;11.00;99.90
49615;DHT22;35517;45.272;9.984;2024-03-08T00:44:43;11.00;99.90
49615;DHT22;35517;45.272;9.984;2024-03-08T00:47:11;11.00;99.90
49615;DHT22;35517;45.272;9.984;2024-03-08T00:49:37;11.00;99.90
49615;DHT22;35517;45.272;9.984;2024-03-08T00:52:05;11.10;99.90
49615;DHT22;35517;45.272;9.984;2024-03-08T00:54:34;11.10;99.90
49615;DHT22;35517;45.272;9.984;2024-03-08T00:57:02;11.00;99.90
49615;DHT22;35517;45.272;9.984;2024-03-08T00:59:29;11.00;99.90
49615;DHT22;35517;45.272;9.984;2024-03-08T01:01:56;11.00;99.90
49615;DHT22;35517;45.272;9.984;2024-03-08T01:04:22;11.10;99.90
49615;DHT22;35517;45.272;9.984;2024-03-08T01:06:49;10.90;99.90
49615;DHT22;35517;45.272;9.984;2024-03-08T01:09:15;11.10;99.90
49615;DHT22;35517;45.272;9.984;2024-03-08T01:11:43;11.00;99.90
49615;DHT22;35517;45.272;9.984;2024-03-08T01:14:09;11.00;99.90
49615;DHT22;35517;45.272;9.984;2024-03-08T01:16:36;11.00;99.90
49615;DHT22;35517;45.272;9.984;2024-03-08T01:19:02;11.10;99.90
49615;DHT22;35517;45.272;9.984;2024-03-08T01:21:29;11.00;99.90
49615;DHT22;35517;45.272;9.984;2024-03-08T01:23:55;11.10;99.90
49615;DHT22;35517;45.272;9.984;2024-03-08T01:26:22;11.10;99.90
49615;DHT22;35517;45.272;9.984;2024-03-08T01:28:49;10.90;99.90
49615;DHT22;35517;45.272;9.984;2024-03-08T01:31:15;11.10;99.90
49615;DHT22;35517;45.272;9.984;2024-03-08T01:33:42;11.10;99.90
49615;DHT22;35517;45.272;9.984;2024-03-08T01:36:08;11.00;99.90
49615;DHT22;35517;45.272;9.984;2024-03-08T01:38:34;11.10;99.90
49615;DHT22;35517;45.272;9.984;2024-03-08T01:41:02;11.00;99.90
49615;DHT22;35517;45.272;9.984;2024-03-08T01:43:29;11.10;99.90
49615;DHT22;35517;45.272;9.984;2024-03-08T01:45:57;11.00;99.90
49615;DHT22;35517;45.272;9.984;2024-03-08T01:48:28;11.10;99.90
49615;DHT22;35517;45.272;9.984;2024-03-08T01:50:56;11.00;99.90
49615;DHT22;35517;45.272;9.984;2024-03-08T01:53:29;11.10;99.90
49615;DHT22;35517;45.272;9.984;2024-03-08T01:55:57;10.90;99.90
49615;DHT22;35517;45.272;9.984;2024-03-08T01:58:26;11.00;99.90
49615;DHT22;35517;45.272;9.984;2024-03-08T02:00:54;11.00;99.90
49615;DHT22;35517;45.272;9.984;2024-03-08T02:03:22;11.10;99.90
49615;DHT22;35517;45.272;9.984;2024-03-08T02:05:49;11.00;99.90
49615;DHT22;35517;45.272;9.984;2024-03-08T02:08:16;11.00;99.90
49615;DHT22;35517;45.272;9.984;2024-03-08T02:10:44;10.90;99.90
49615;DHT22;35517;45.272;9.984;2024-03-08T02:13:11;11.00;99.90
49615;DHT22;35517;45.272;9.984;2024-03-08T02:15:57;10.90;99.90
49615;DHT22;35517;45.272;9.984;2024-03-08T02:18:25;10.90;99.90
49615;DHT22;35517;45.272;9.984;2024-03-08T02:20:56;10.90;99.90
49615;DHT22;35517;45.272;9.984;2024-03-08T02:23:23;10.90;99.90
49615;DHT22;35517;45.272;9.984;2024-03-08T02:25:51;10.90;99.90
49615;DHT22;35517;45.272;9.984;2024-03-08T02:28:17;11.00;99.90
49615;DHT22;35517;45.272;9.984;2024-03-08T02:30:52;11.00;99.90
49615;DHT22;35517;45.272;9.984;2024-03-08T02:33:23;11.00;99.90
49615;DHT22;35517;45.272;9.984;2024-03-08T02:35:49;11.00;99.90
49615;DHT22;35517;45.272;9.984;2024-03-08T02:38:20;11.10;99.90
49615;DHT22;35517;45.272;9.984;2024-03-08T02:40:48;10.90;99.90
49615;DHT22;35517;45.272;9.984;2024-03-08T02:43:16;11.00;99.90
49615;DHT22;35517;45.272;9.984;2024-03-08T02:45:44;11.10;99.90
49615;DHT22;35517;45.272;9.984;2024-03-08T02:48:12;11.10;99.90
49615;DHT22;35517;45.272;9.984;2024-03-08T02:50:38;11.10;99.90
49615;DHT22;35517;45.272;9.984;2024-03-08T02:53:11;11.10;99.90
49615;DHT22;35517;45.272;9.984;2024-03-08T02:55:38;11.20;99.90
49615;DHT22;35517;45.272;9.984;2024-03-08T02:58:05;11.10;99.90
49615;DHT22;35517;45.272;9.984;2024-03-08T03:00:32;11.10;99.90
49615;DHT22;35517;45.272;9.984;2024-03-08T03:02:58;11.10;99.90
49615;DHT22;35517;45.272;9.984;2024-03-08T03:05:25;11.00;99.90
49615;DHT22;35517;45.272;9.984;2024-03-08T03:07:51;11.10;99.90
49615;DHT22;35517;45.272;9.984;2024-03-08T03:10:18;11.10;99.90
49615;DHT22;35517;45.272;9.984;2024-03-08T03:12:45;11.00;99.90
49615;DHT22;35517;45.272;9.984;2024-03-08T03:15:13;11.00;99.90
49615;DHT22;35517;45.272;9.984;2024-03-08T03:17:39;11.00;99.90
49615;DHT22;35517;45.272;9.984;2024-03-08T03:20:07;11.00;99.90
49615;DHT22;35517;45.272;9.984;2024-03-08T03:22:39;11.00;99.90
49615;DHT22;35517;45.272;9.984;2024-03-08T03:25:09;11.00;99.90
49615;DHT22;35517;45.272;9.984;2024-03-08T03:27:36;11.00;99.90
49615;DHT22;35517;45.272;9.984;2024-03-08T03:30:04;11.10;99.90
49615;DHT22;35517;45.272;9.984;2024-03-08T03:32:48;11.00;99.90
49615;DHT22;35517;45.272;9.984;2024-03-08T03:35:14;11.00;99.90
49615;DHT22;35517;45.272;9.984;2024-03-08T03:37:41;11.00;99.90
49615;DHT22;35517;45.272;9.984;2024-03-08T03:40:09;11.00;99.90
49615;DHT22;35517;45.272;9.984;2024-03-08T03:42:35;11.00;99.90
49615;DHT22;35517;45.272;9.984;2024-03-08T03:45:06;10.90;99.90
49615;DHT22;35517;45.272;9.984;2024-03-08T03:47:32;11.00;99.90
49615;DHT22;35517;45.272;9.984;2024-03-08T03:49:58;10.90;99.90
49615;DHT22;35517;45.272;9.984;2024-03-08T03:52:28;10.90;99.90
49615;DHT22;35517;45.272;9.984;2024-03-08T03:54:54;11.00;99.90
49615;DHT22;35517;45.272;9.984;2024-03-08T03:57:20;10.90;99.90
49615;DHT22;35517;45.272;9.984;2024-03-08T03:59:49;10.90;99.90
49615;DHT22;35517;45.272;9.984;2024-03-08T04:02:17;11.00;99.90
49615;DHT22;35517;45.272;9.984;2024-03-08T04:04:43;10.90;99.90
49615;DHT22;35517;45.272;9.984;2024-03-08T04:07:11;11.00;99.90
49615;DHT22;35517;45.272;9.984;2024-03-08T04:09:37;10.90;99.90
49615;DHT22;35517;45.272;9.984;2024-03-08T04:12:04;10.90;99.90
49615;DHT22;35517;45.272;9.984;2024-03-08T04:14:30;10.90;99.90
49615;DHT22;35517;45.272;9.984;2024-03-08T04:16:57;10.90;99.90
49615;DHT22;35517;45.272;9.984;2024-03-08T04:19:23;10.90;99.90
49615;DHT22;35517;45.272;9.984;2024-03-08T04:21:50;10.90;99.90
49615;DHT22;35517;45.272;9.984;2024-03-08T04:24:16;10.90;99.90
49615;DHT22;35517;45.272;9.984;2024-03-08T04:26:43;10.90;99.90
49615;DHT22;35517;45.272;9.984;2024-03-08T04:29:09;10.90;99.90
49615;DHT22;35517;45.272;9.984;2024-03-08T04:31:35;10.90;99.90
49615;DHT22;35517;45.272;9.984;2024-03-08T04:34:04;10.90;99.90
49615;DHT22;35517;45.272;9.984;2024-03-08T04:36:31;10.80;99.90
49615;DHT22;35517;45.272;9.984;2024-03-08T04:38:57;10.80;99.90
49615;DHT22;35517;45.272;9.984;2024-03-08T04:41:23;10.80;99.90
49615;DHT22;35517;45.272;9.984;2024-03-08T04:43:49;10.80;99.90
49615;DHT22;35517;45.272;9.984;2024-03-08T04:46:16;10.80;99.90
49615;DHT22;35517;45.272;9.984;2024-03-08T04:48:42;10.80;99.90
49615;DHT22;35517;45.272;9.984;2024-03-08T04:51:09;10.70;99.90
49615;DHT22;35517;45.272;9.984;2024-03-08T04:53:36;10.80;99.90
49615;DHT22;35517;45.272;9.984;2024-03-08T04:56:02;10.80;99.90
49615;DHT22;35517;45.272;9.984;2024-03-08T04:58:33;10.80;99.90
49615;DHT22;35517;45.272;9.984;2024-03-08T05:01:01;10.80;99.90
49615;DHT22;35517;45.272;9.984;2024-03-08T05:03:28;10.80;99.90
49615;DHT22;35517;45.272;9.984;2024-03-08T05:05:54;10.80;99.90
49615;DHT22;35517;45.272;9.984;2024-03-08T05:08:21;10.70;99.90
49615;DHT22;35517;45.272;9.984;2024-03-08T05:10:47;10.70;99.90
49615;DHT22;35517;45.272;9.984;2024-03-08T05:13:14;10.70;99.90
49615;DHT22;35517;45.272;9.984;2024-03-08T05:15:40;10.80;99.90
49615;DHT22;35517;45.272;9.984;2024-03-08T05:18:06;10.80;99.90
49615;DHT22;35517;45.272;9.984;2024-03-08T05:20:32;10.80;99.90
49615;DHT22;35517;45.272;9.984;2024-03-08T05:22:59;10.70;99.90
49615;DHT22;35517;45.272;9.984;2024-03-08T05:25:26;10.80;99.90
49615;DHT22;35517;45.272;9.984;2024-03-08T05:27:52;10.70;99.90
49615;DHT22;35517;45.272;9.984;2024-03-08T05:30:19;10.70;99.90
49615;DHT22;35517;45.272;9.984;2024-03-08T05:32:47;10.80;99.90
49615;DHT22;35517;45.272;9.984;2024-03-08T05:35:13;10.80;99.90
49615;DHT22;35517;45.272;9.984;2024-03-08T05:37:42;10.70;99.90
49615;DHT22;35517;45.272;9.984;2024-03-08T05:40:09;10.80;99.90
49615;DHT22;35517;45.272;9.984;2024-03-08T05:42:36;10.80;99.90
49615;DHT22;35517;45.272;9.984;2024-03-08T05:45:05;10.70;99.90
49615;DHT22;35517;45.272;9.984;2024-03-08T05:47:36;10.70;99.90
49615;DHT22;35517;45.272;9.984;2024-03-08T05:50:02;10.80;99.90
49615;DHT22;35517;45.272;9.984;2024-03-08T05:52:28;10.80;99.90
49615;DHT22;35517;45.272;9.984;2024-03-08T05:54:55;10.80;99.90
49615;DHT22;35517;45.272;9.984;2024-03-08T05:57:21;10.80;99.90
49615;DHT22;35517;45.272;9.984;2024-03-08T05:59:49;10.80;99.90
49615;DHT22;35517;45.272;9.984;2024-03-08T06:02:15;10.80;99.90
49615;DHT22;35517;45.272;9.984;2024-03-08T06:04:47;10.80;99.90
49615;DHT22;35517;45.272;9.984;2024-03-08T06:07:14;10.80;99.90
49615;DHT22;35517;45.272;9.984;2024-03-08T06:09:40;10.80;99.90
49615;DHT22;35517;45.272;9.984;2024-03-08T06:12:06;10.70;99.90
49615;DHT22;35517;45.272;9.984;2024-03-08T06:14:32;10.80;99.90
49615;DHT22;35517;45.272;9.984;2024-03-08T06:16:59;10.80;99.90
49615;DHT22;35517;45.272;9.984;2024-03-08T06:19:26;10.80;99.90
49615;DHT22;35517;45.272;9.984;2024-03-08T06:21:52;10.90;99.90
49615;DHT22;35517;45.272;9.984;2024-03-08T06:24:19;10.80;99.90
49615;DHT22;35517;45.272;9.984;2024-03-08T06:26:45;10.90;99.90
49615;DHT22;35517;45.272;9.984;2024-03-08T06:29:11;10.80;99.90
49615;DHT22;35517;45.272;9.984;2024-03-08T06:31:38;10.80;99.90
49615;DHT22;35517;45.272;9.984;2024-03-08T06:34:05;10.90;99.90
49615;DHT22;35517;45.272;9.984;2024-03-08T06:36:33;10.80;99.90
49615;DHT22;35517;45.272;9.984;2024-03-08T06:39:00;10.80;99.90
49615;DHT22;35517;45.272;9.984;2024-03-08T06:41:27;10.90;99.90
49615;DHT22;35517;45.272;9.984;2024-03-08T06:43:53;10.90;99.90
49615;DHT22;35517;45.272;9.984;2024-03-08T06:46:23;10.80;99.90
49615;DHT22;35517;45.272;9.984;2024-03-08T06:48:49;10.90;99.90
49615;DHT22;35517;45.272;9.984;2024-03-08T06:51:15;10.90;99.90
49615;DHT22;35517;45.272;9.984;2024-03-08T06:53:42;10.90;99.90
49615;DHT22;35517;45.272;9.984;2024-03-08T06:56:08;10.90;99.90
49615;DHT22;35517;45.272;9.984;2024-03-08T06:58:35;10.90;99.90
49615;DHT22;35517;45.272;9.984;2024-03-08T07:01:01;11.00;99.90
49615;DHT22;35517;45.272;9.984;2024-03-08T07:03:29;10.90;99.90
49615;DHT22;35517;45.272;9.984;2024-03-08T07:05:56;11.00;99.90
49615;DHT22;35517;45.272;9.984;2024-03-08T07:08:25;10.90;99.90
49615;DHT22;35517;45.272;9.984;2024-03-08T07:10:53;10.90;99.90
49615;DHT22;35517;45.272;9.984;2024-03-08T07:13:20;11.00;99.90
49615;DHT22;35517;45.272;9.984;2024-03-08T07:15:46;10.90;99.90
49615;DHT22;35517;45.272;9.984;2024-03-08T07:18:12;11.00;99.90
49615;DHT22;35517;45.272;9.984;2024-03-08T07:20:41;11.00;99.90
49615;DHT22;35517;45.272;9.984;2024-03-08T07:23:08;11.00;99.90
49615;DHT22;35517;45.272;9.984;2024-03-08T07:25:34;11.00;99.90
49615;DHT22;35517;45.272;9.984;2024-03-08T07:28:01;11.10;99.90
49615;DHT22;35517;45.272;9.984;2024-03-08T07:30:27;11.00;99.90
49615;DHT22;35517;45.272;9.984;2024-03-08T07:33:12;11.00;99.90
49615;DHT22;35517;45.272;9.984;2024-03-08T07:35:38;11.00;99.90
49615;DHT22;35517;45.272;9.984;2024-03-08T07:38:09;11.00;99.90
49615;DHT22;35517;45.272;9.984;2024-03-08T07:40:36;11.10;99.90
49615;DHT22;35517;45.272;9.984;2024-03-08T07:43:23;11.00;99.90
49615;DHT22;35517;45.272;9.984;2024-03-08T07:45:49;11.00;99.90
49615;DHT22;35517;45.272;9.984;2024-03-08T07:48:15;11.10;99.90
49615;DHT22;35517;45.272;9.984;2024-03-08T07:50:42;11.10;99.90
49615;DHT22;35517;45.272;9.984;2024-03-08T07:53:09;11.10;99.90
49615;DHT22;35517;45.272;9.984;2024-03-08T07:55:36;11.10;99.90
49615;DHT22;35517;45.272;9.984;2024-03-08T07:58:03;11.10;99.90
49615;DHT22;35517;45.272;9.984;2024-03-08T08:00:30;11.10;99.90
49615;DHT22;35517;45.272;9.984;2024-03-08T08:02:57;11.20;99.90
49615;DHT22;35517;45.272;9.984;2024-03-08T08:05:23;11.20;99.90
49615;DHT22;35517;45.272;9.984;2024-03-08T08:07:50;11.20;99.90
49615;DHT22;35517;45.272;9.984;2024-03-08T08:10:18;11.20;99.90
49615;DHT22;35517;45.272;9.984;2024-03-08T08:12:48;11.20;99.90
49615;DHT22;35517;45.272;9.984;2024-03-08T08:15:14;11.20;99.90
49615;DHT22;35517;45.272;9.984;2024-03-08T08:17:42;11.20;99.90
49615;DHT22;35517;45.272;9.984;2024-03-08T08:20:10;11.20;99.90
49615;DHT22;35517;45.272;9.984;2024-03-08T08:22:38;11.30;99.90
49615;DHT22;35517;45.272;9.984;2024-03-08T08:25:06;11.30;99.90
49615;DHT22;35517;45.272;9.984;2024-03-08T08:27:32;11.20;99.90
49615;DHT22;35517;45.272;9.984;2024-03-08T08:29:59;11.40;99.90
49615;DHT22;35517;45.272;9.984;2024-03-08T08:32:26;11.20;99.90
49615;DHT22;35517;45.272;9.984;2024-03-08T08:34:52;11.40;99.90
49615;DHT22;35517;45.272;9.984;2024-03-08T08:37:18;11.30;99.90
49615;DHT22;35517;45.272;9.984;2024-03-08T08:39:45;11.30;99.90
49615;DHT22;35517;45.272;9.984;2024-03-08T08:42:11;11.30;99.90
49615;DHT22;35517;45.272;9.984;2024-03-08T08:44:37;11.30;99.90
49615;DHT22;35517;45.272;9.984;2024-03-08T08:47:03;11.30;99.90
49615;DHT22;35517;45.272;9.984;2024-03-08T08:49:30;11.30;99.90
49615;DHT22;35517;45.272;9.984;2024-03-08T08:51:56;11.20;99.90
49615;DHT22;35517;45.272;9.984;2024-03-08T08:54:24;11.20;99.90
49615;DHT22;35517;45.272;9.984;2024-03-08T08:56:51;11.30;99.90
49615;DHT22;35517;45.272;9.984;2024-03-08T08:59:17;11.30;99.90
49615;DHT22;35517;45.272;9.984;2024-03-08T09:01:46;11.30;99.90
49615;DHT22;35517;45.272;9.984;2024-03-08T09:04:16;11.30;99.90
49615;DHT22;35517;45.272;9.984;2024-03-08T09:06:42;11.40;99.90
49615;DHT22;35517;45.272;9.984;2024-03-08T09:09:09;11.40;99.90
49615;DHT22;35517;45.272;9.984;2024-03-08T09:11:37;11.40;99.90
49615;DHT22;35517;45.272;9.984;2024-03-08T09:14:08;11.40;99.90
49615;DHT22;35517;45.272;9.984;2024-03-08T09:16:34;11.40;99.90
49615;DHT22;35517;45.272;9.984;2024-03-08T09:19:01;11.50;99.90
49615;DHT22;35517;45.272;9.984;2024-03-08T09:21:27;11.50;99.90
49615;DHT22;35517;45.272;9.984;2024-03-08T09:23:53;11.50;99.90
49615;DHT22;35517;45.272;9.984;2024-03-08T09:26:20;11.50;99.90
49615;DHT22;35517;45.272;9.984;2024-03-08T09:28:46;11.50;99.90
49615;DHT22;35517;45.272;9.984;2024-03-08T09:31:12;11.60;99.90
49615;DHT22;35517;45.272;9.984;2024-03-08T09:33:38;11.60;99.90
49615;DHT22;35517;45.272;9.984;2024-03-08T09:36:06;11.60;99.90
49615;DHT22;35517;45.272;9.984;2024-03-08T09:38:33;11.60;99.90
49615;DHT22;35517;45.272;9.984;2024-03-08T09:41:03;11.60;99.90
49615;DHT22;35517;45.272;9.984;2024-03-08T09:43:30;11.60;99.90
49615;DHT22;35517;45.272;9.984;2024-03-08T09:45:59;11.60;99.90
49615;DHT22;35517;45.272;9.984;2024-03-08T09:48:26;11.70;99.90
49615;DHT22;35517;45.272;9.984;2024-03-08T09:50:52;11.50;99.90
49615;DHT22;35517;45.272;9.984;2024-03-08T09:53:20;11.70;99.90
49615;DHT22;35517;45.272;9.984;2024-03-08T09:55:48;11.70;99.90
49615;DHT22;35517;45.272;9.984;2024-03-08T09:58:16;11.80;99.90
49615;DHT22;35517;45.272;9.984;2024-03-08T10:00:53;11.80;99.90
49615;DHT22;35517;45.272;9.984;2024-03-08T10:03:20;11.90;99.90
49615;DHT22;35517;45.272;9.984;2024-03-08T10:05:46;12.00;99.90
49615;DHT22;35517;45.272;9.984;2024-03-08T10:08:12;12.00;99.90
49615;DHT22;35517;45.272;9.984;2024-03-08T10:10:39;12.00;99.90
49615;DHT22;35517;45.272;9.984;2024-03-08T10:13:10;12.10;99.90
49615;DHT22;35517;45.272;9.984;2024-03-08T10:15:39;12.20;99.90
49615;DHT22;35517;45.272;9.984;2024-03-08T10:18:06;12.20;99.90
49615;DHT22;35517;45.272;9.984;2024-03-08T10:20:33;12.30;99.90
49615;DHT22;35517;45.272;9.984;2024-03-08T10:23:03;12.40;99.90
49615;DHT22;35517;45.272;9.984;2024-03-08T10:25:35;12.30;99.90
49615;DHT22;35517;45.272;9.984;2024-03-08T10:28:05;12.50;99.90
49615;DHT22;35517;45.272;9.984;2024-03-08T10:30:31;12.40;99.90
49615;DHT22;35517;45.272;9.984;2024-03-08T10:32:58;12.60;99.90
49615;DHT22;35517;45.272;9.984;2024-03-08T10:35:24;12.60;99.90
49615;DHT22;35517;45.272;9.984;2024-03-08T10:37:52;12.90;99.90
49615;DHT22;35517;45.272;9.984;2024-03-08T10:40:28;12.80;99.90
49615;DHT22;35517;45.272;9.984;2024-03-08T10:45:35;13.10;99.90
49615;DHT22;35517;45.272;9.984;2024-03-08T10:50:42;13.10;99.90
49615;DHT22;35517;45.272;9.984;2024-03-08T10:53:11;13.50;99.90
49615;DHT22;35517;45.272;9.984;2024-03-08T10:55:40;13.30;99.90
49615;DHT22;35517;45.272;9.984;2024-03-08T10:58:07;13.50;99.90
49615;DHT22;35517;45.272;9.984;2024-03-08T11:00:34;13.50;99.90
49615;DHT22;35517;45.272;9.984;2024-03-08T11:03:01;13.50;99.90
49615;DHT22;35517;45.272;9.984;2024-03-08T11:05:40;13.50;99.90
49615;DHT22;35517;45.272;9.984;2024-03-08T11:10:51;13.50;99.90
49615;DHT22;35517;45.272;9.984;2024-03-08T11:13:37;13.40;99.90
49615;DHT22;35517;45.272;9.984;2024-03-08T11:16:10;13.30;99.90
49615;DHT22;35517;45.272;9.984;2024-03-08T11:18:37;13.40;99.90
49615;DHT22;35517;45.272;9.984;2024-03-08T11:21:04;13.30;99.90
49615;DHT22;35517;45.272;9.984;2024-03-08T11:23:38;13.40;99.90
49615;DHT22;35517;45.272;9.984;2024-03-08T11:26:22;13.20;99.90
49615;DHT22;35517;45.272;9.984;2024-03-08T11:28:49;13.30;99.90
49615;DHT22;35517;45.272;9.984;2024-03-08T11:31:23;13.30;99.90
49615;DHT22;35517;45.272;9.984;2024-03-08T11:33:50;13.40;99.90
49615;DHT22;35517;45.272;9.984;2024-03-08T11:36:23;13.30;99.90
49615;DHT22;35517;45.272;9.984;2024-03-08T11:38:51;13.50;99.90
49615;DHT22;35517;45.272;9.984;2024-03-08T11:41:20;13.30;99.90
49615;DHT22;35517;45.272;9.984;2024-03-08T11:43:47;13.10;99.90
49615;DHT22;35517;45.272;9.984;2024-03-08T11:46:15;13.10;99.90
49615;DHT22;35517;45.272;9.984;2024-03-08T11:48:43;13.20;99.90
49615;DHT22;35517;45.272;9.984;2024-03-08T11:51:14;13.00;99.90
49615;DHT22;35517;45.272;9.984;2024-03-08T11:53:41;13.00;99.90
49615;DHT22;35517;45.272;9.984;2024-03-08T11:56:13;13.10;99.90
49615;DHT22;35517;45.272;9.984;2024-03-08T11:58:40;13.10;99.90
49615;DHT22;35517;45.272;9.984;2024-03-08T12:01:08;13.00;99.90
49615;DHT22;35517;45.272;9.984;2024-03-08T12:03:42;13.00;99.90
49615;DHT22;35517;45.272;9.984;2024-03-08T12:06:09;12.90;99.90
49615;DHT22;35517;45.272;9.984;2024-03-08T12:08:36;12.90;99.90
49615;DHT22;35517;45.272;9.984;2024-03-08T12:11:05;12.90;99.90
49615;DHT22;35517;45.272;9.984;2024-03-08T12:13:33;13.00;99.90
49615;DHT22;35517;45.272;9.984;2024-03-08T12:16:03;12.90;99.90
49615;DHT22;35517;45.272;9.984;2024-03-08T12:18:34;13.10;99.90
49615;DHT22;35517;45.272;9.984;2024-03-08T12:21:11;13.10;99.90
49615;DHT22;35517;45.272;9.984;2024-03-08T12:23:40;13.00;99.90
49615;DHT22;35517;45.272;9.984;2024-03-08T12:26:18;13.00;99.90
49615;DHT22;35517;45.272;9.984;2024-03-08T12:28:45;13.00;99.90
49615;DHT22;35517;45.272;9.984;2024-03-08T12:31:12;12.90;99.90
49615;DHT22;35517;45.272;9.984;2024-03-08T12:33:53;12.80;99.90
49615;DHT22;35517;45.272;9.984;2024-03-08T12:36:20;12.90;99.90
49615;DHT22;35517;45.272;9.984;2024-03-08T12:38:47;13.00;99.90
49615;DHT22;35517;45.272;9.984;2024-03-08T12:41:18;12.90;99.90
49615;DHT22;35517;45.272;9.984;2024-03-08T12:43:45;12.90;99.90
49615;DHT22;35517;45.272;9.984;2024-03-08T12:46:21;12.90;99.90
49615;DHT22;35517;45.272;9.984;2024-03-08T12:48:48;12.80;99.90
49615;DHT22;35517;45.272;9.984;2024-03-08T12:51:16;13.10;99.90
49615;DHT22;35517;45.272;9.984;2024-03-08T12:53:42;13.20;99.90
49615;DHT22;35517;45.272;9.984;2024-03-08T12:56:10;13.10;99.90
49615;DHT22;35517;45.272;9.984;2024-03-08T12:58:37;13.20;99.90
49615;DHT22;35517;45.272;9.984;2024-03-08T13:01:04;13.20;99.90
49615;DHT22;35517;45.272;9.984;2024-03-08T13:03:36;13.30;99.90
49615;DHT22;35517;45.272;9.984;2024-03-08T13:06:04;13.30;99.90
49615;DHT22;35517;45.272;9.984;2024-03-08T13:08:40;13.40;99.90
49615;DHT22;35517;45.272;9.984;2024-03-08T13:11:07;13.30;99.90
49615;DHT22;35517;45.272;9.984;2024-03-08T13:13:34;13.30;99.90
49615;DHT22;35517;45.272;9.984;2024-03-08T13:16:06;13.40;99.90
49615;DHT22;35517;45.272;9.984;2024-03-08T13:18:37;13.40;99.90
49615;DHT22;35517;45.272;9.984;2024-03-08T13:21:04;13.40;99.90
49615;DHT22;35517;45.272;9.984;2024-03-08T13:23:34;13.50;99.90
49615;DHT22;35517;45.272;9.984;2024-03-08T13:26:10;13.50;99.90
49615;DHT22;35517;45.272;9.984;2024-03-08T13:28:45;13.50;99.90
49615;DHT22;35517;45.272;9.984;2024-03-08T13:31:12;13.60;99.90
49615;DHT22;35517;45.272;9.984;2024-03-08T13:33:41;13.60;99.90
49615;DHT22;35517;45.272;9.984;2024-03-08T13:36:13;13.60;99.90
49615;DHT22;35517;45.272;9.984;2024-03-08T13:38:46;13.50;99.90
49615;DHT22;35517;45.272;9.984;2024-03-08T13:41:14;13.60;99.90
49615;DHT22;35517;45.272;9.984;2024-03-08T13:43:43;13.60;99.90
49615;DHT22;35517;45.272;9.984;2024-03-08T13:46:11;13.50;99.90
49615;DHT22;35517;45.272;9.984;2024-03-08T13:48:38;13.50;99.90
49615;DHT22;35517;45.272;9.984;2024-03-08T13:51:05;13.60;99.90
49615;DHT22;35517;45.272;9.984;2024-03-08T13:53:39;13.60;99.90
49615;DHT22;35517;45.272;9.984;2024-03-08T13:56:06;13.60;99.90
49615;DHT22;35517;45.272;9.984;2024-03-08T13:58:34;13.60;99.90
49615;DHT22;35517;45.272;9.984;2024-03-08T14:01:01;13.60;99.90
49615;DHT22;35517;45.272;9.984;2024-03-08T14:03:29;13.50;99.90
49615;DHT22;35517;45.272;9.984;2024-03-08T14:05:55;13.50;99.90
49615;DHT22;35517;45.272;9.984;2024-03-08T14:08:23;13.50;99.90
49615;DHT22;35517;45.272;9.984;2024-03-08T14:10:50;13.60;99.90
49615;DHT22;35517;45.272;9.984;2024-03-08T14:13:19;13.50;99.90
49615;DHT22;35517;45.272;9.984;2024-03-08T14:15:47;13.40;99.90
49615;DHT22;35517;45.272;9.984;2024-03-08T14:18:17;13.30;99.90
49615;DHT22;35517;45.272;9.984;2024-03-08T14:20:43;13.30;99.90
49615;DHT22;35517;45.272;9.984;2024-03-08T14:23:10;13.20;99.90
49615;DHT22;35517;45.272;9.984;2024-03-08T14:25:38;13.10;99.90
49615;DHT22;35517;45.272;9.984;2024-03-08T14:28:05;13.10;99.90
49615;DHT22;35517;45.272;9.984;2024-03-08T14:30:34;13.10;99.90
49615;DHT22;35517;45.272;9.984;2024-03-08T14:33:10;13.10;99.90
49615;DHT22;35517;45.272;9.984;2024-03-08T14:35:38;13.00;99.90
49615;DHT22;35517;45.272;9.984;2024-03-08T14:38:06;13.10;99.90
49615;DHT22;35517;45.272;9.984;2024-03-08T14:40:36;13.00;99.90
49615;DHT22;35517;45.272;9.984;2024-03-08T14:43:03;13.00;99.90
49615;DHT22;35517;45.272;9.984;2024-03-08T14:45:30;13.00;99.90
49615;DHT22;35517;45.272;9.984;2024-03-08T14:47:57;13.00;99.90
49615;DHT22;35517;45.272;9.984;2024-03-08T14:50:24;12.90;99.90
49615;DHT22;35517;45.272;9.984;2024-03-08T14:52:51;12.80;99.90
49615;DHT22;35517;45.272;9.984;2024-03-08T14:55:19;12.80;99.90
49615;DHT22;35517;45.272;9.984;2024-03-08T14:57:48;12.80;99.90
49615;DHT22;35517;45.272;9.984;2024-03-08T15:00:18;12.70;99.90
49615;DHT22;35517;45.272;9.984;2024-03-08T15:02:59;12.80;99.90
49615;DHT22;35517;45.272;9.984;2024-03-08T15:05:28;12.70;99.90
49615;DHT22;35517;45.272;9.984;2024-03-08T15:07:54;12.60;99.90
49615;DHT22;35517;45.272;9.984;2024-03-08T15:10:21;12.70;99.90
49615;DHT22;35517;45.272;9.984;2024-03-08T15:12:51;12.60;99.90
49615;DHT22;35517;45.272;9.984;2024-03-08T15:15:22;12.70;99.90
49615;DHT22;35517;45.272;9.984;2024-03-08T15:17:50;12.50;99.90
49615;DHT22;35517;45.272;9.984;2024-03-08T15:20:17;12.70;99.90
49615;DHT22;35517;45.272;9.984;2024-03-08T15:22:50;12.40;99.90
49615;DHT22;35517;45.272;9.984;2024-03-08T15:25:17;12.50;99.90
49615;DHT22;35517;45.272;9.984;2024-03-08T15:27:47;12.60;99.90
49615;DHT22;35517;45.272;9.984;2024-03-08T15:30:14;12.30;99.90
49615;DHT22;35517;45.272;9.984;2024-03-08T15:32:45;12.40;99.90
49615;DHT22;35517;45.272;9.984;2024-03-08T15:35:14;12.40;99.90
49615;DHT22;35517;45.272;9.984;2024-03-08T15:37:40;12.40;99.90
49615;DHT22;35517;45.272;9.984;2024-03-08T15:40:11;12.30;99.90
49615;DHT22;35517;45.272;9.984;2024-03-08T15:42:56;12.20;99.90